aviador You're here:

LFOC Decoded Metar

CHATEAUDUN in FRANCE
Report Time2018-05-28 07:30:00
UTC Time2018-05-28 08:00:23
Flight Rules vfr VFR
Wind050° at 04 kt
W.Decomp.*RWY 10: 2.6 kt HW 3 kt LCW
W.Rank050° ranks 14
Current wind is below 050° avg. (6.5)
Visibility9999 m
Phenomena:N/A
Clouds:N/A
Expected CloudBase > 2,400 ft AGL from Temp-Dew spread
CeilingNone
Temp21°C (ISA +7)
Dew Point15°C (69% RH)
QNH1017 hPa
Density Alt1,309 ft
Elevation417 ft
Report Wrong Elevation
Raw Report
METAR LFOC 280730Z AUTO 05004KT CAVOK 21/15 Q1017 NOSIG=

Extra information for LFOC:More info

Metar Taf Metar & Taf Last 4 Metars F.Rules Stats Wind Profile Meteogram Temp Stats Airport Information Weather charts Add Link Nearby VenuesMetar ALERT Operation Metar Decoded Social comments